createdAt,value
2019-02-07T00:00:44.122Z,1015.17
2019-02-07T00:01:42.850Z,1015.17
2019-02-07T00:02:42.789Z,1015.18
2019-02-07T00:03:42.784Z,1015.21
2019-02-07T00:04:42.778Z,1015.14
2019-02-07T00:05:42.779Z,1015.16
2019-02-07T00:06:42.811Z,1015.06
2019-02-07T00:07:42.764Z,1015.10
2019-02-07T00:08:42.764Z,1015.09
2019-02-07T00:10:43.898Z,1015.13
2019-02-07T00:11:42.858Z,1015.00
2019-02-07T00:12:42.728Z,1015.10
2019-02-07T00:13:42.673Z,1015.03
2019-02-07T00:14:42.662Z,1015.00
2019-02-07T00:15:44.723Z,1015.00
2019-02-07T00:16:45.642Z,1015.03
2019-02-07T00:17:42.622Z,1015.00
2019-02-07T00:18:42.609Z,1014.98
2019-02-07T00:19:42.702Z,1014.98
2019-02-07T00:20:42.600Z,1014.97
2019-02-07T00:21:42.616Z,1014.95
2019-02-07T00:23:44.470Z,1014.96
2019-02-07T00:24:43.294Z,1014.91
2019-02-07T00:25:42.552Z,1014.90
2019-02-07T00:26:42.616Z,1014.93
2019-02-07T00:27:42.566Z,1014.91
2019-02-07T00:28:42.590Z,1014.95
2019-02-07T00:29:42.536Z,1014.95
2019-02-07T00:30:42.480Z,1014.90
2019-02-07T00:31:42.554Z,1014.90
2019-02-07T00:32:42.570Z,1014.90
2019-02-07T00:33:42.498Z,1014.89
2019-02-07T00:34:42.440Z,1014.84
2019-02-07T00:35:42.528Z,1014.84
2019-02-07T00:36:42.438Z,1014.78
2019-02-07T00:38:45.494Z,1014.79
2019-02-07T00:39:42.412Z,1014.80
2019-02-07T00:40:42.428Z,1014.77
2019-02-07T00:41:42.380Z,1014.78
2019-02-07T00:42:42.386Z,1014.79
2019-02-07T00:43:42.363Z,1014.76
2019-02-07T00:44:50.443Z,1014.80
2019-02-07T00:45:43.390Z,1014.74
2019-02-07T00:46:42.367Z,1014.74
2019-02-07T00:48:43.536Z,1014.72
2019-02-07T00:50:03.284Z,1014.77
2019-02-07T00:50:42.295Z,1014.77
2019-02-07T00:51:42.333Z,1014.73
2019-02-07T00:52:42.273Z,1014.81
2019-02-07T00:53:42.280Z,1014.71
2019-02-07T00:54:42.228Z,1014.69
2019-02-07T00:55:42.239Z,1014.70
2019-02-07T00:56:42.230Z,1014.70
2019-02-07T00:57:42.243Z,1014.69
2019-02-07T00:59:43.520Z,1014.70
2019-02-07T01:01:03.174Z,1014.73
2019-02-07T01:01:42.171Z,1014.66
2019-02-07T01:02:45.038Z,1014.65
2019-02-07T01:03:42.170Z,1014.61
2019-02-07T01:04:42.153Z,1014.65
2019-02-07T01:05:42.118Z,1014.58
2019-02-07T01:06:42.136Z,1014.50
2019-02-07T01:07:42.108Z,1014.47
2019-02-07T01:08:42.114Z,1014.45
2019-02-07T01:09:42.113Z,1014.42
2019-02-07T01:10:42.070Z,1014.42
2019-02-07T01:11:42.064Z,1014.41
2019-02-07T01:12:42.069Z,1014.45
2019-02-07T01:13:42.044Z,1014.42
2019-02-07T01:14:45.156Z,1014.40
2019-02-07T01:16:43.361Z,1014.33
2019-02-07T01:18:43.365Z,1014.25
2019-02-07T01:20:43.278Z,1014.29
2019-02-07T01:22:02.960Z,1014.29
2019-02-07T01:23:02.949Z,1014.24
2019-02-07T01:23:41.942Z,1014.27
2019-02-07T01:24:41.923Z,1014.30
2019-02-07T01:25:41.958Z,1014.26
2019-02-07T01:26:41.896Z,1014.23
2019-02-07T01:27:41.910Z,1014.25
2019-02-07T01:28:41.882Z,1014.22
2019-02-07T01:30:42.979Z,1014.18
2019-02-07T01:31:41.926Z,1014.15
2019-02-07T01:32:41.834Z,1014.19
2019-02-07T01:33:41.870Z,1014.18
2019-02-07T01:34:41.814Z,1014.17
2019-02-07T01:35:41.900Z,1014.12
2019-02-07T01:36:41.806Z,1014.15
2019-02-07T01:37:41.816Z,1014.15
2019-02-07T01:38:41.782Z,1014.17
2019-02-07T01:39:41.808Z,1014.17
2019-02-07T01:40:41.753Z,1014.16
2019-02-07T01:41:41.746Z,1014.14
2019-02-07T01:42:41.778Z,1014.13
2019-02-07T01:43:41.742Z,1014.23
2019-02-07T01:44:41.717Z,1014.25
2019-02-07T01:45:41.706Z,1014.26
2019-02-07T01:46:41.720Z,1014.22
2019-02-07T01:47:41.687Z,1014.25
2019-02-07T01:48:41.700Z,1014.23
2019-02-07T01:49:41.675Z,1014.18
2019-02-07T01:50:41.663Z,1014.10
2019-02-07T01:51:41.630Z,1014.14
2019-02-07T01:52:41.660Z,1014.07
2019-02-07T01:53:41.624Z,1014.09
2019-02-07T01:54:41.619Z,1014.04
2019-02-07T01:55:41.592Z,1014.06
2019-02-07T01:56:41.580Z,1014.03
2019-02-07T01:57:41.760Z,1014.08
2019-02-07T01:58:41.581Z,1014.02
2019-02-07T01:59:41.557Z,1013.96
2019-02-07T02:00:41.564Z,1013.93
2019-02-07T02:01:41.530Z,1013.88
2019-02-07T02:02:43.668Z,1013.88
2019-02-07T02:03:44.199Z,1013.85
2019-02-07T02:04:41.582Z,1013.82
2019-02-07T02:05:44.580Z,1013.81
2019-02-07T02:06:41.516Z,1013.77
2019-02-07T02:07:43.143Z,1013.78
2019-02-07T02:08:44.476Z,1013.75
2019-02-07T02:09:41.532Z,1013.74
2019-02-07T02:10:41.499Z,1013.72
2019-02-07T02:11:41.446Z,1013.73
2019-02-07T02:12:41.478Z,1013.70
2019-02-07T02:13:41.663Z,1013.65
2019-02-07T02:14:41.461Z,1013.67
2019-02-07T02:18:03.400Z,1013.57
2019-02-07T02:18:41.381Z,1013.50
2019-02-07T02:19:41.334Z,1013.39
2019-02-07T02:20:41.332Z,1013.39
2019-02-07T02:21:41.419Z,1013.32
2019-02-07T02:22:45.430Z,1013.30
2019-02-07T02:23:41.462Z,1013.30
2019-02-07T02:24:41.382Z,1013.29
2019-02-07T02:26:42.550Z,1013.29
2019-02-07T02:27:41.346Z,1013.33
2019-02-07T02:28:41.406Z,1013.38
2019-02-07T02:30:42.528Z,1013.36
2019-02-07T02:31:43.272Z,1013.35
2019-02-07T02:34:19.784Z,1013.31
2019-02-07T02:35:19.728Z,1013.27
2019-02-07T02:36:19.711Z,1013.27
2019-02-07T02:37:23.800Z,1013.28
2019-02-07T02:38:19.788Z,1013.29
2019-02-07T02:39:21.465Z,1013.28
2019-02-07T02:40:19.682Z,1013.27
2019-02-07T02:42:20.823Z,1013.24
2019-02-07T02:43:19.975Z,1013.23
2019-02-07T02:44:22.582Z,1013.21
2019-02-07T02:45:19.637Z,1013.16
2019-02-07T02:46:19.616Z,1013.12
2019-02-07T02:47:19.669Z,1013.10
2019-02-07T02:48:19.651Z,1013.11
2019-02-07T02:50:20.786Z,1013.07
2019-02-07T02:51:19.553Z,1013.08
2019-02-07T02:52:27.908Z,1013.07
2019-02-07T02:53:21.667Z,1013.09
2019-02-07T02:54:21.599Z,1013.07
2019-02-07T02:55:21.665Z,1013.08
2019-02-07T02:56:19.593Z,1013.02
2019-02-07T02:58:20.735Z,1013.03
2019-02-07T02:59:19.527Z,1013.01
2019-02-07T03:00:19.694Z,1013.09
2019-02-07T03:03:20.654Z,1013.07
2019-02-07T03:04:19.439Z,1013.06
2019-02-07T03:06:20.425Z,1013.04
2019-02-07T03:08:20.597Z,1012.92
2019-02-07T03:09:19.371Z,1012.92
2019-02-07T03:10:19.377Z,1012.93
2019-02-07T03:12:20.587Z,1012.94
2019-02-07T03:13:19.434Z,1012.90
2019-02-07T03:14:19.377Z,1012.92
2019-02-07T03:15:19.463Z,1012.88
2019-02-07T03:16:21.353Z,1012.86
2019-02-07T03:17:19.279Z,1012.87
2019-02-07T03:18:19.353Z,1012.75
2019-02-07T03:19:19.323Z,1012.76
2019-02-07T03:20:19.286Z,1012.75
2019-02-07T03:21:19.315Z,1012.70
2019-02-07T03:22:23.361Z,1012.74
2019-02-07T03:23:19.223Z,1012.71
2019-02-07T03:24:19.223Z,1012.68
2019-02-07T03:25:19.242Z,1012.70
2019-02-07T03:26:19.192Z,1012.63
2019-02-07T03:27:19.256Z,1012.63
2019-02-07T03:28:23.255Z,1012.58
2019-02-07T03:29:19.158Z,1012.61
2019-02-07T03:30:19.186Z,1012.59
2019-02-07T03:31:19.135Z,1012.56
2019-02-07T03:32:19.220Z,1012.56
2019-02-07T03:33:19.199Z,1012.54
2019-02-07T03:35:20.375Z,1012.53
2019-02-07T03:36:19.169Z,1012.57
2019-02-07T03:37:19.158Z,1012.53
2019-02-07T03:38:19.152Z,1012.44
2019-02-07T03:39:19.145Z,1012.53
2019-02-07T03:40:19.053Z,1012.45
2019-02-07T03:41:19.069Z,1012.45
2019-02-07T03:42:21.109Z,1012.41
2019-02-07T03:43:19.091Z,1012.45
2019-02-07T03:44:19.077Z,1012.49
2019-02-07T03:45:18.991Z,1012.45
2019-02-07T03:46:19.139Z,1012.45
2019-02-07T03:47:23.079Z,1012.45
2019-02-07T03:48:21.037Z,1012.40
2019-02-07T03:49:21.029Z,1012.46
2019-02-07T03:51:21.494Z,1012.43
2019-02-07T03:52:18.970Z,1012.40
2019-02-07T03:53:19.003Z,1012.37
2019-02-07T03:54:18.989Z,1012.37
2019-02-07T03:55:18.937Z,1012.39
2019-02-07T03:57:20.087Z,1012.37
2019-02-07T03:58:19.049Z,1012.41
2019-02-07T03:59:18.848Z,1012.35
2019-02-07T04:00:18.826Z,1012.32
2019-02-07T04:01:18.872Z,1012.33
2019-02-07T04:02:18.875Z,1012.33
2019-02-07T04:03:18.847Z,1012.33
2019-02-07T04:04:18.816Z,1012.29
2019-02-07T04:05:22.885Z,1012.28
2019-02-07T04:06:20.607Z,1012.32
2019-02-07T04:07:18.816Z,1012.26
2019-02-07T04:08:18.821Z,1012.24
2019-02-07T04:09:18.741Z,1012.17
2019-02-07T04:10:18.739Z,1012.23
2019-02-07T04:11:18.752Z,1012.22
2019-02-07T04:12:20.753Z,1012.26
2019-02-07T04:13:18.753Z,1012.28
2019-02-07T04:14:18.757Z,1012.22
2019-02-07T04:15:18.671Z,1012.28
2019-02-07T04:16:18.859Z,1012.25
2019-02-07T04:17:18.733Z,1012.24
2019-02-07T04:18:18.655Z,1012.25
2019-02-07T04:19:18.615Z,1012.19
2019-02-07T04:20:18.625Z,1012.15
2019-02-07T04:21:18.629Z,1012.17
2019-02-07T04:22:20.664Z,1012.15
2019-02-07T04:23:18.656Z,1012.21
2019-02-07T04:24:18.772Z,1012.19
2019-02-07T04:25:18.635Z,1012.19
2019-02-07T04:26:20.625Z,1012.18
2019-02-07T04:27:18.731Z,1012.14
2019-02-07T04:28:18.603Z,1012.19
2019-02-07T04:29:18.592Z,1012.15
2019-02-07T04:30:18.519Z,1012.07
2019-02-07T04:31:18.486Z,1012.09
2019-02-07T04:32:21.633Z,1012.02
2019-02-07T04:33:18.572Z,1012.01
2019-02-07T04:34:18.585Z,1012.00
2019-02-07T04:36:19.936Z,1012.02
2019-02-07T04:37:39.533Z,1011.90
2019-02-07T04:38:18.428Z,1011.93
2019-02-07T04:39:18.441Z,1011.88
2019-02-07T04:40:18.421Z,1011.89
2019-02-07T04:41:18.395Z,1011.90
2019-02-07T04:43:21.369Z,1011.86
2019-02-07T04:44:18.375Z,1011.82
2019-02-07T04:45:18.353Z,1011.79
2019-02-07T04:46:26.632Z,1011.79
2019-02-07T04:47:21.203Z,1011.72
2019-02-07T04:49:19.435Z,1011.72
2019-02-07T04:50:18.332Z,1011.74
2019-02-07T04:51:18.284Z,1011.66
2019-02-07T04:52:18.542Z,1011.62
2019-02-07T04:53:18.447Z,1011.66
2019-02-07T04:55:19.473Z,1011.65
2019-02-07T04:56:18.471Z,1011.59
2019-02-07T04:57:18.342Z,1011.63
2019-02-07T04:59:19.366Z,1011.60
2019-02-07T05:00:18.435Z,1011.53
2019-02-07T05:01:18.398Z,1011.47
2019-02-07T05:02:39.189Z,1011.48
2019-02-07T05:03:39.197Z,1011.43
2019-02-07T05:04:39.245Z,1011.47
2019-02-07T05:05:39.304Z,1011.51
2019-02-07T05:06:20.145Z,1011.48
2019-02-07T05:07:18.167Z,1011.51
2019-02-07T05:08:20.137Z,1011.45
2019-02-07T05:09:20.138Z,1011.50
2019-02-07T05:10:18.075Z,1011.51
2019-02-07T05:11:20.173Z,1011.55
2019-02-07T05:13:19.929Z,1011.45
2019-02-07T05:14:18.115Z,1011.41
2019-02-07T05:15:18.107Z,1011.37
2019-02-07T05:16:18.080Z,1011.35
2019-02-07T05:18:19.259Z,1011.38
2019-02-07T05:19:18.045Z,1011.31
2019-02-07T05:20:18.009Z,1011.28
2019-02-07T05:22:18.952Z,1011.39
2019-02-07T05:23:17.961Z,1011.35
2019-02-07T05:24:17.946Z,1011.32
2019-02-07T05:25:17.929Z,1011.22
2019-02-07T05:27:19.121Z,1011.23
2019-02-07T05:28:40.624Z,1011.26
2019-02-07T05:29:17.936Z,1011.23
2019-02-07T05:30:17.916Z,1011.24
2019-02-07T05:32:19.052Z,1011.26
2019-02-07T05:33:39.007Z,1011.22
2019-02-07T05:34:17.957Z,1011.18
2019-02-07T05:36:19.020Z,1011.20
2019-02-07T05:37:17.884Z,1011.10
2019-02-07T05:38:26.992Z,1011.09
2019-02-07T05:43:18.919Z,1011.17
2019-02-07T05:45:18.953Z,1011.04
2019-02-07T05:46:38.695Z,1011.05
2019-02-07T05:48:18.909Z,1011.06
2019-02-07T05:49:38.699Z,1011.04
2019-02-07T05:50:17.662Z,1011.12
2019-02-07T05:51:17.647Z,1011.08
2019-02-07T05:52:17.716Z,1011.11
2019-02-07T05:53:17.722Z,1011.06
2019-02-07T05:54:19.520Z,1011.03
2019-02-07T05:55:17.645Z,1011.01
2019-02-07T05:56:17.644Z,1011.02
2019-02-07T05:57:17.650Z,1011.02
2019-02-07T05:58:17.557Z,1011.00
2019-02-07T05:59:17.615Z,1010.96
2019-02-07T06:00:17.614Z,1010.93
2019-02-07T06:01:17.542Z,1010.97
2019-02-07T06:02:17.611Z,1010.99
2019-02-07T06:03:17.617Z,1010.92
2019-02-07T06:04:17.599Z,1010.91
2019-02-07T06:05:17.600Z,1010.89
2019-02-07T06:06:17.507Z,1010.94
2019-02-07T06:07:19.565Z,1010.94
2019-02-07T06:08:19.547Z,1010.90
2019-02-07T06:09:17.565Z,1010.93
2019-02-07T06:10:17.577Z,1010.96
2019-02-07T06:11:17.458Z,1010.94
2019-02-07T06:12:21.525Z,1010.97
2019-02-07T06:13:17.488Z,1010.90
2019-02-07T06:14:17.467Z,1010.89
2019-02-07T06:15:17.542Z,1010.86
2019-02-07T06:16:17.404Z,1010.80
2019-02-07T06:18:18.476Z,1010.82
2019-02-07T06:19:17.398Z,1010.78
2019-02-07T06:20:17.451Z,1010.77
2019-02-07T06:21:17.348Z,1010.78
2019-02-07T06:22:17.328Z,1010.79
2019-02-07T06:23:17.400Z,1010.71
2019-02-07T06:24:17.333Z,1010.72
2019-02-07T06:26:18.543Z,1010.74
2019-02-07T06:27:17.548Z,1010.73
2019-02-07T06:28:17.534Z,1010.71
2019-02-07T06:29:17.537Z,1010.69
2019-02-07T06:30:17.527Z,1010.68
2019-02-07T06:31:17.367Z,1010.69
2019-02-07T06:32:17.285Z,1010.64
2019-02-07T06:33:17.261Z,1010.59
2019-02-07T06:34:28.392Z,1010.65
2019-02-07T06:36:18.973Z,1010.64
2019-02-07T06:37:17.227Z,1010.67
2019-02-07T06:38:17.201Z,1010.64
2019-02-07T06:40:18.393Z,1010.57
2019-02-07T06:41:17.146Z,1010.61
2019-02-07T06:42:17.217Z,1010.55
2019-02-07T06:44:18.639Z,1010.49
2019-02-07T06:45:17.072Z,1010.43
2019-02-07T06:46:17.109Z,1010.43
2019-02-07T06:47:17.187Z,1010.48
2019-02-07T06:49:18.414Z,1010.39
2019-02-07T06:50:17.090Z,1010.43
2019-02-07T06:51:21.102Z,1010.38
2019-02-07T06:52:18.680Z,1010.37
2019-02-07T06:53:16.982Z,1010.30
2019-02-07T06:54:17.065Z,1010.29
2019-02-07T06:55:16.959Z,1010.29
2019-02-07T06:56:17.027Z,1010.29
2019-02-07T06:57:19.569Z,1010.32
2019-02-07T06:58:16.950Z,1010.29
2019-02-07T06:59:16.925Z,1010.34
2019-02-07T07:00:16.918Z,1010.35
2019-02-07T07:01:17.058Z,1010.41
2019-02-07T07:02:16.937Z,1010.34
2019-02-07T07:03:16.888Z,1010.35
2019-02-07T07:04:17.155Z,1010.35
2019-02-07T07:05:16.927Z,1010.32
2019-02-07T07:06:16.916Z,1010.39
2019-02-07T07:07:17.006Z,1010.40
2019-02-07T07:08:16.832Z,1010.37
2019-02-07T07:09:18.094Z,1010.35
2019-02-07T07:10:16.798Z,1010.40
2019-02-07T07:11:16.841Z,1010.39
2019-02-07T07:12:16.920Z,1010.40
2019-02-07T07:13:16.853Z,1010.33
2019-02-07T07:14:18.810Z,1010.41
2019-02-07T07:15:16.761Z,1010.43
2019-02-07T07:16:16.740Z,1010.40
2019-02-07T07:17:25.432Z,1010.47
2019-02-07T07:18:17.951Z,1010.44
2019-02-07T07:19:16.789Z,1010.41
2019-02-07T07:20:16.774Z,1010.41
2019-02-07T07:21:16.705Z,1010.39
2019-02-07T07:22:16.739Z,1010.34
2019-02-07T07:23:20.640Z,1010.36
2019-02-07T07:24:16.723Z,1010.38
2019-02-07T07:25:18.716Z,1010.40
2019-02-07T07:26:16.700Z,1010.32
2019-02-07T07:28:17.793Z,1010.41
2019-02-07T07:29:16.686Z,1010.45
2019-02-07T07:30:16.594Z,1010.43
2019-02-07T07:32:17.798Z,1010.41
2019-02-07T07:33:16.827Z,1010.39
2019-02-07T07:34:16.622Z,1010.32
2019-02-07T07:35:16.538Z,1010.26
2019-02-07T07:36:16.533Z,1010.29
2019-02-07T07:37:16.558Z,1010.29
2019-02-07T07:38:16.685Z,1010.29
2019-02-07T07:40:17.973Z,1010.26
2019-02-07T07:41:16.470Z,1010.24
2019-02-07T07:42:16.539Z,1010.22
2019-02-07T07:43:16.497Z,1010.22
2019-02-07T07:44:16.605Z,1010.14
2019-02-07T07:45:16.514Z,1010.13
2019-02-07T07:46:16.417Z,1010.10
2019-02-07T07:47:16.460Z,1010.08
2019-02-07T07:48:20.538Z,1010.07
2019-02-07T07:49:16.548Z,1010.04
2019-02-07T07:50:16.443Z,1010.00
2019-02-07T07:51:19.456Z,1010.00
2019-02-07T07:52:16.404Z,1009.93
2019-02-07T07:53:16.428Z,1009.98
2019-02-07T07:54:16.524Z,1009.96
2019-02-07T07:57:17.550Z,1009.95
2019-02-07T07:58:16.299Z,1009.87
2019-02-07T08:00:19.112Z,1009.89
2019-02-07T08:01:16.440Z,1009.96
2019-02-07T08:02:16.262Z,1009.85
2019-02-07T08:03:16.240Z,1009.87
2019-02-07T08:04:16.406Z,1009.88
2019-02-07T08:05:16.232Z,1009.88
2019-02-07T08:06:18.218Z,1009.78
2019-02-07T08:07:18.293Z,1009.79
2019-02-07T08:08:16.341Z,1009.82
2019-02-07T08:10:16.154Z,1009.87
2019-02-07T08:11:16.157Z,1009.80
2019-02-07T08:12:16.212Z,1009.84
2019-02-07T08:14:17.401Z,1009.80
2019-02-07T08:15:16.108Z,1009.84
2019-02-07T08:16:16.091Z,1009.83
2019-02-07T08:18:17.440Z,1009.85
2019-02-07T08:19:16.094Z,1009.82
2019-02-07T08:20:16.079Z,1009.81
2019-02-07T08:22:17.247Z,1009.78
2019-02-07T08:24:17.293Z,1009.70
2019-02-07T08:25:16.049Z,1009.71
2019-02-07T08:26:15.985Z,1009.69
2019-02-07T08:27:16.062Z,1009.69
2019-02-07T08:28:18.081Z,1009.62
2019-02-07T08:29:16.087Z,1009.67
2019-02-07T08:30:16.128Z,1009.63
2019-02-07T08:31:16.020Z,1009.63
2019-02-07T08:33:17.151Z,1009.59
2019-02-07T08:34:15.971Z,1009.50
2019-02-07T08:35:16.053Z,1009.50
2019-02-07T08:38:17.112Z,1009.45
2019-02-07T08:39:15.867Z,1009.42
2019-02-07T08:41:17.121Z,1009.40
2019-02-07T08:44:17.071Z,1009.36
2019-02-07T08:45:38.676Z,1009.32
2019-02-07T08:48:16.979Z,1009.34
2019-02-07T08:50:18.547Z,1009.31
2019-02-07T08:51:15.825Z,1009.30
2019-02-07T08:54:16.976Z,1009.20
2019-02-07T08:55:15.814Z,1009.16
2019-02-07T08:56:19.713Z,1009.15
2019-02-07T08:57:36.737Z,1009.10
2019-02-07T08:58:15.662Z,1009.03
2019-02-07T08:59:15.667Z,1009.00
2019-02-07T09:00:15.677Z,1009.07
2019-02-07T09:01:17.787Z,1008.98
2019-02-07T09:03:16.939Z,1008.92
2019-02-07T09:04:15.606Z,1008.97
2019-02-07T09:05:15.578Z,1008.96
2019-02-07T09:06:15.606Z,1008.93
2019-02-07T09:07:17.681Z,1008.97
2019-02-07T09:08:15.746Z,1008.89
2019-02-07T09:09:23.698Z,1008.92
2019-02-07T09:10:15.518Z,1008.89
2019-02-07T09:11:15.549Z,1008.92
2019-02-07T09:12:15.502Z,1008.84
2019-02-07T09:13:15.554Z,1008.79
2019-02-07T09:15:16.668Z,1008.73
2019-02-07T09:16:15.516Z,1008.75
2019-02-07T09:17:15.517Z,1008.72
2019-02-07T09:20:16.677Z,1008.65
2019-02-07T09:21:15.462Z,1008.59
2019-02-07T09:22:15.441Z,1008.60
2019-02-07T09:23:15.388Z,1008.59
2019-02-07T09:24:15.409Z,1008.58
2019-02-07T09:25:15.377Z,1008.68
2019-02-07T09:27:16.505Z,1008.58
2019-02-07T09:28:15.381Z,1008.65
2019-02-07T09:29:15.409Z,1008.62
2019-02-07T09:30:15.306Z,1008.68
2019-02-07T09:31:15.298Z,1008.72
2019-02-07T09:32:17.498Z,1008.71
2019-02-07T09:33:19.400Z,1008.73
2019-02-07T09:35:16.499Z,1008.72
2019-02-07T09:36:15.258Z,1008.70
2019-02-07T09:37:15.465Z,1008.70
2019-02-07T09:38:17.299Z,1008.71
2019-02-07T09:40:16.434Z,1008.75
2019-02-07T09:41:15.224Z,1008.69
2019-02-07T09:42:15.178Z,1008.67
2019-02-07T09:43:17.208Z,1008.61
2019-02-07T09:45:17.013Z,1008.61
2019-02-07T09:46:36.136Z,1008.66
2019-02-07T09:47:38.349Z,1008.56
2019-02-07T09:48:21.783Z,1008.56
2019-02-07T09:49:16.193Z,1008.49
2019-02-07T09:50:15.198Z,1008.51
2019-02-07T09:52:16.273Z,1008.60
2019-02-07T09:53:23.745Z,1008.56
2019-02-07T09:54:16.083Z,1008.62
2019-02-07T09:56:16.025Z,1008.55
2019-02-07T09:57:15.033Z,1008.59
2019-02-07T09:58:23.474Z,1008.53
2019-02-07T09:59:15.552Z,1008.57
2019-02-07T10:00:14.978Z,1008.48
2019-02-07T10:03:16.039Z,1008.57
2019-02-07T10:04:15.007Z,1008.67
2019-02-07T10:06:18.105Z,1008.70
2019-02-07T10:07:14.992Z,1008.62
2019-02-07T10:10:16.030Z,1008.56
2019-02-07T10:11:14.887Z,1008.54
2019-02-07T10:12:16.953Z,1008.47
2019-02-07T10:14:17.603Z,1008.40
2019-02-07T10:15:14.829Z,1008.40
2019-02-07T10:16:14.911Z,1008.37
2019-02-07T10:17:17.875Z,1008.37
2019-02-07T10:18:14.823Z,1008.34
2019-02-07T10:20:16.093Z,1008.29
2019-02-07T10:21:14.823Z,1008.27
2019-02-07T10:24:16.058Z,1008.29
2019-02-07T10:25:35.738Z,1008.28
2019-02-07T10:26:14.746Z,1008.17
2019-02-07T10:27:16.849Z,1008.30
2019-02-07T10:28:14.764Z,1008.18
2019-02-07T10:29:14.873Z,1008.13
2019-02-07T10:31:15.907Z,1008.20
2019-02-07T10:33:15.855Z,1008.20
2019-02-07T10:35:22.611Z,1008.15
2019-02-07T10:36:15.602Z,1008.20
2019-02-07T10:37:14.641Z,1008.16
2019-02-07T10:39:15.820Z,1008.07
2019-02-07T10:40:14.609Z,1008.12
2019-02-07T10:41:14.561Z,1008.15
2019-02-07T10:42:14.623Z,1008.10
2019-02-07T10:43:16.611Z,1008.10
2019-02-07T10:45:15.782Z,1008.00
2019-02-07T10:46:14.597Z,1008.06
2019-02-07T10:47:16.574Z,1008.00
2019-02-07T10:48:15.541Z,1008.01
2019-02-07T10:49:15.536Z,1008.00
2019-02-07T10:50:14.472Z,1007.96
2019-02-07T10:51:14.469Z,1007.91
2019-02-07T10:52:16.507Z,1007.86
2019-02-07T10:53:14.495Z,1007.84
2019-02-07T10:54:14.497Z,1007.85
2019-02-07T10:55:14.462Z,1007.91
2019-02-07T10:56:18.165Z,1007.75
2019-02-07T10:57:14.411Z,1007.72
2019-02-07T10:58:14.427Z,1007.72
2019-02-07T11:00:15.629Z,1007.78
2019-02-07T11:01:14.435Z,1007.67
2019-02-07T11:03:15.726Z,1007.67
2019-02-07T11:04:35.299Z,1007.64
2019-02-07T11:05:14.364Z,1007.62
2019-02-07T11:06:17.094Z,1007.59
2019-02-07T11:07:16.305Z,1007.67
2019-02-07T11:08:14.339Z,1007.57
2019-02-07T11:10:15.531Z,1007.58
2019-02-07T11:11:14.255Z,1007.56
2019-02-07T11:12:16.279Z,1007.57
2019-02-07T11:15:17.174Z,1007.54
2019-02-07T11:16:14.195Z,1007.47
2019-02-07T11:18:15.391Z,1007.40
2019-02-07T11:19:35.126Z,1007.37
2019-02-07T11:22:15.345Z,1007.36
2019-02-07T11:23:16.163Z,1007.36
2019-02-07T11:25:15.336Z,1007.30
2019-02-07T11:26:14.069Z,1007.32
2019-02-07T11:27:14.175Z,1007.30
2019-02-07T11:30:15.227Z,1007.23
2019-02-07T11:31:14.201Z,1007.06
2019-02-07T11:33:16.045Z,1007.10
2019-02-07T11:34:13.975Z,1007.02
2019-02-07T11:35:13.974Z,1007.01
2019-02-07T11:37:15.059Z,1006.96
2019-02-07T11:38:13.956Z,1006.97
2019-02-07T11:39:14.013Z,1006.90
2019-02-07T11:40:16.016Z,1007.02
2019-02-07T11:41:13.911Z,1006.99
2019-02-07T11:42:13.925Z,1007.06
2019-02-07T11:43:16.589Z,1007.06
2019-02-07T11:44:13.906Z,1007.04
2019-02-07T11:45:13.923Z,1006.98
2019-02-07T11:46:13.895Z,1007.02
2019-02-07T11:47:15.899Z,1007.00
2019-02-07T11:48:16.615Z,1006.97
2019-02-07T11:49:13.842Z,1006.97
2019-02-07T11:50:13.792Z,1006.88
2019-02-07T11:51:13.793Z,1006.81
2019-02-07T11:52:13.863Z,1006.78
2019-02-07T11:53:16.814Z,1006.71
2019-02-07T11:54:13.845Z,1006.74
2019-02-07T11:55:13.779Z,1006.81
2019-02-07T11:56:13.763Z,1006.83
2019-02-07T11:57:13.791Z,1006.81
2019-02-07T11:58:13.867Z,1006.83
2019-02-07T11:59:15.794Z,1006.89
2019-02-07T12:00:13.802Z,1006.90
2019-02-07T12:01:13.749Z,1006.92
2019-02-07T12:02:13.707Z,1006.94
2019-02-07T12:03:13.756Z,1006.95
2019-02-07T12:04:13.643Z,1006.93
2019-02-07T12:05:13.630Z,1006.94
2019-02-07T12:06:13.631Z,1006.95
2019-02-07T12:07:13.677Z,1007.05
2019-02-07T12:08:13.645Z,1006.92
2019-02-07T12:09:13.605Z,1006.99
2019-02-07T12:10:13.592Z,1007.07
2019-02-07T12:11:21.828Z,1007.02
2019-02-07T12:12:13.631Z,1006.91
2019-02-07T12:13:13.584Z,1006.93
2019-02-07T12:14:13.624Z,1006.99
2019-02-07T12:15:13.602Z,1007.00
2019-02-07T12:17:16.506Z,1007.01
2019-02-07T12:18:13.549Z,1006.93
2019-02-07T12:19:18.007Z,1006.96
2019-02-07T12:21:14.681Z,1006.88
2019-02-07T12:22:13.527Z,1006.75
2019-02-07T12:23:13.478Z,1006.69
2019-02-07T12:24:15.504Z,1006.73
2019-02-07T12:25:13.455Z,1006.75
2019-02-07T12:26:13.419Z,1006.77
2019-02-07T12:27:16.409Z,1006.84
2019-02-07T12:28:13.432Z,1006.79
2019-02-07T12:29:13.401Z,1006.76
2019-02-07T12:30:13.401Z,1006.78
2019-02-07T12:31:15.413Z,1006.80
2019-02-07T12:32:15.381Z,1006.83
2019-02-07T12:33:13.411Z,1006.77
2019-02-07T12:35:14.617Z,1006.71
2019-02-07T12:36:34.318Z,1006.67
2019-02-07T12:37:13.349Z,1006.67
2019-02-07T12:38:15.351Z,1006.66
2019-02-07T12:39:15.257Z,1006.68
2019-02-07T12:40:13.348Z,1006.73
2019-02-07T12:42:14.458Z,1006.78
2019-02-07T12:43:13.229Z,1006.78
2019-02-07T12:44:13.260Z,1006.72
2019-02-07T12:45:13.213Z,1006.68
2019-02-07T12:46:13.228Z,1006.61
2019-02-07T12:47:17.299Z,1006.67
2019-02-07T12:49:14.382Z,1006.60
2019-02-07T12:50:13.158Z,1006.59
2019-02-07T12:51:13.230Z,1006.51
2019-02-07T12:52:21.451Z,1006.47
2019-02-07T12:53:13.205Z,1006.41
2019-02-07T12:54:13.343Z,1006.43
2019-02-07T12:55:16.748Z,1006.56
2019-02-07T12:56:29.620Z,1006.52
2019-02-07T12:57:13.136Z,1006.47
2019-02-07T12:58:17.185Z,1006.41
2019-02-07T12:59:13.116Z,1006.35
2019-02-07T13:00:23.052Z,1006.33
2019-02-07T13:01:13.197Z,1006.29
2019-02-07T13:02:14.071Z,1006.28
2019-02-07T13:03:13.026Z,1006.29
2019-02-07T13:05:14.096Z,1006.33
2019-02-07T13:06:12.984Z,1006.33
2019-02-07T13:07:13.041Z,1006.36
2019-02-07T13:09:14.062Z,1006.28
2019-02-07T13:10:12.972Z,1006.27
2019-02-07T13:11:12.948Z,1006.27
2019-02-07T13:14:14.229Z,1006.23
2019-02-07T13:15:12.915Z,1006.25
2019-02-07T13:16:12.936Z,1006.28
2019-02-07T13:17:12.930Z,1006.33
2019-02-07T13:19:14.100Z,1006.47
2019-02-07T13:20:12.934Z,1006.49
2019-02-07T13:21:12.886Z,1006.43
2019-02-07T13:23:14.066Z,1006.47
2019-02-07T13:24:12.813Z,1006.47
2019-02-07T13:25:12.811Z,1006.43
2019-02-07T13:26:12.775Z,1006.41
2019-02-07T13:27:12.762Z,1006.46
2019-02-07T13:30:14.048Z,1006.43
2019-02-07T13:31:12.723Z,1006.42
2019-02-07T13:32:20.993Z,1006.41
2019-02-07T13:36:34.742Z,1006.41
2019-02-07T13:37:16.764Z,1006.44
2019-02-07T13:38:14.811Z,1006.42
2019-02-07T13:39:12.685Z,1006.46
2019-02-07T13:40:35.748Z,1006.55
2019-02-07T13:42:13.764Z,1006.54
2019-02-07T13:43:12.632Z,1006.49
2019-02-07T13:45:15.186Z,1006.50
2019-02-07T13:47:13.767Z,1006.50
2019-02-07T13:48:12.736Z,1006.54
2019-02-07T13:49:12.524Z,1006.57
2019-02-07T13:51:13.759Z,1006.59
2019-02-07T13:52:12.610Z,1006.60
2019-02-07T13:53:12.469Z,1006.65
2019-02-07T13:54:12.463Z,1006.62
2019-02-07T13:55:12.460Z,1006.65
2019-02-07T13:56:12.477Z,1006.66
2019-02-07T14:03:13.604Z,1006.60
2019-02-07T14:04:12.451Z,1006.65
2019-02-07T14:06:13.571Z,1006.72
2019-02-07T14:07:39.740Z,1006.70
2019-02-07T14:08:12.385Z,1006.67
2019-02-07T14:09:12.401Z,1006.70
2019-02-07T14:10:12.392Z,1006.68
2019-02-07T14:11:12.358Z,1006.68
2019-02-07T14:12:15.285Z,1006.65
2019-02-07T14:13:12.280Z,1006.68
2019-02-07T14:14:12.247Z,1006.68
2019-02-07T14:15:12.231Z,1006.66
2019-02-07T14:16:12.254Z,1006.72
2019-02-07T14:17:12.479Z,1006.74
2019-02-07T14:20:13.624Z,1006.65
2019-02-07T14:21:12.166Z,1006.64
2019-02-07T14:22:16.278Z,1006.70